sensor_id;sensor_type;location;lat;lon;timestamp;P1;durP1;ratioP1;P2;durP2;ratioP2
18657;SDS011;9458;50.942;5.074;2023-02-28T00:01:33;4.93;;;3.43;;
18657;SDS011;9458;50.942;5.074;2023-02-28T00:04:01;4.87;;;3.33;;
18657;SDS011;9458;50.942;5.074;2023-02-28T00:06:30;4.30;;;3.37;;
18657;SDS011;9458;50.942;5.074;2023-02-28T00:09:00;6.03;;;3.33;;
18657;SDS011;9458;50.942;5.074;2023-02-28T00:11:29;5.13;;;3.53;;
18657;SDS011;9458;50.942;5.074;2023-02-28T00:13:58;4.33;;;3.40;;
18657;SDS011;9458;50.942;5.074;2023-02-28T00:16:26;4.90;;;3.70;;
18657;SDS011;9458;50.942;5.074;2023-02-28T00:18:54;5.17;;;3.90;;
18657;SDS011;9458;50.942;5.074;2023-02-28T00:21:22;8.70;;;3.70;;
18657;SDS011;9458;50.942;5.074;2023-02-28T00:23:50;6.07;;;4.13;;
18657;SDS011;9458;50.942;5.074;2023-02-28T00:26:19;6.13;;;3.90;;
18657;SDS011;9458;50.942;5.074;2023-02-28T00:28:46;4.80;;;3.40;;
18657;SDS011;9458;50.942;5.074;2023-02-28T00:31:14;4.03;;;3.40;;
18657;SDS011;9458;50.942;5.074;2023-02-28T00:33:42;6.03;;;3.77;;
18657;SDS011;9458;50.942;5.074;2023-02-28T00:36:11;10.60;;;3.93;;
18657;SDS011;9458;50.942;5.074;2023-02-28T00:38:39;6.93;;;3.20;;
18657;SDS011;9458;50.942;5.074;2023-02-28T00:41:10;7.57;;;3.90;;
18657;SDS011;9458;50.942;5.074;2023-02-28T00:43:38;7.33;;;3.63;;
18657;SDS011;9458;50.942;5.074;2023-02-28T00:46:05;7.87;;;3.80;;
18657;SDS011;9458;50.942;5.074;2023-02-28T00:48:33;5.20;;;4.00;;
18657;SDS011;9458;50.942;5.074;2023-02-28T00:51:01;5.60;;;3.60;;
18657;SDS011;9458;50.942;5.074;2023-02-28T00:53:30;6.37;;;3.93;;
18657;SDS011;9458;50.942;5.074;2023-02-28T00:55:59;6.37;;;3.50;;
18657;SDS011;9458;50.942;5.074;2023-02-28T00:58:28;4.97;;;3.93;;
18657;SDS011;9458;50.942;5.074;2023-02-28T01:00:57;6.80;;;4.07;;
18657;SDS011;9458;50.942;5.074;2023-02-28T01:03:34;5.37;;;3.40;;
18657;SDS011;9458;50.942;5.074;2023-02-28T01:06:03;7.37;;;3.90;;
18657;SDS011;9458;50.942;5.074;2023-02-28T01:08:35;6.60;;;3.93;;
18657;SDS011;9458;50.942;5.074;2023-02-28T01:11:09;6.70;;;3.93;;
18657;SDS011;9458;50.942;5.074;2023-02-28T01:13:45;5.37;;;3.20;;
18657;SDS011;9458;50.942;5.074;2023-02-28T01:16:13;4.90;;;3.67;;
18657;SDS011;9458;50.942;5.074;2023-02-28T01:18:41;5.60;;;3.90;;
18657;SDS011;9458;50.942;5.074;2023-02-28T01:21:09;10.20;;;4.00;;
18657;SDS011;9458;50.942;5.074;2023-02-28T01:23:41;7.37;;;4.10;;
18657;SDS011;9458;50.942;5.074;2023-02-28T01:26:11;6.47;;;4.00;;
18657;SDS011;9458;50.942;5.074;2023-02-28T01:28:47;6.70;;;4.00;;
18657;SDS011;9458;50.942;5.074;2023-02-28T01:31:15;5.87;;;3.80;;
18657;SDS011;9458;50.942;5.074;2023-02-28T01:33:48;6.60;;;3.83;;
18657;SDS011;9458;50.942;5.074;2023-02-28T01:36:20;5.33;;;3.53;;
18657;SDS011;9458;50.942;5.074;2023-02-28T01:38:50;6.20;;;3.70;;
18657;SDS011;9458;50.942;5.074;2023-02-28T01:41:23;11.53;;;4.23;;
18657;SDS011;9458;50.942;5.074;2023-02-28T01:44:04;5.20;;;3.40;;
18657;SDS011;9458;50.942;5.074;2023-02-28T01:46:34;7.87;;;3.60;;
18657;SDS011;9458;50.942;5.074;2023-02-28T01:49:06;10.23;;;4.30;;
18657;SDS011;9458;50.942;5.074;2023-02-28T01:51:39;7.33;;;3.67;;
18657;SDS011;9458;50.942;5.074;2023-02-28T01:54:12;6.10;;;4.03;;
18657;SDS011;9458;50.942;5.074;2023-02-28T01:56:51;5.60;;;3.57;;
18657;SDS011;9458;50.942;5.074;2023-02-28T01:59:24;6.07;;;3.97;;
18657;SDS011;9458;50.942;5.074;2023-02-28T02:01:58;7.00;;;3.87;;
18657;SDS011;9458;50.942;5.074;2023-02-28T02:04:27;8.97;;;4.17;;
18657;SDS011;9458;50.942;5.074;2023-02-28T02:07:04;9.63;;;4.93;;
18657;SDS011;9458;50.942;5.074;2023-02-28T02:09:32;6.33;;;3.93;;
18657;SDS011;9458;50.942;5.074;2023-02-28T02:12:01;6.27;;;3.90;;
18657;SDS011;9458;50.942;5.074;2023-02-28T02:14:43;4.53;;;3.30;;
18657;SDS011;9458;50.942;5.074;2023-02-28T02:17:26;5.53;;;4.00;;
18657;SDS011;9458;50.942;5.074;2023-02-28T02:23:24;5.67;;;4.37;;
18657;SDS011;9458;50.942;5.074;2023-02-28T02:26:20;5.73;;;4.13;;
18657;SDS011;9458;50.942;5.074;2023-02-28T02:35:16;7.10;;;4.63;;
18657;SDS011;9458;50.942;5.074;2023-02-28T02:37:57;6.47;;;4.37;;
18657;SDS011;9458;50.942;5.074;2023-02-28T02:40:33;7.60;;;4.60;;
18657;SDS011;9458;50.942;5.074;2023-02-28T02:43:06;9.80;;;4.57;;
18657;SDS011;9458;50.942;5.074;2023-02-28T02:45:38;8.87;;;4.40;;
18657;SDS011;9458;50.942;5.074;2023-02-28T02:48:11;7.23;;;4.73;;
18657;SDS011;9458;50.942;5.074;2023-02-28T02:50:45;6.43;;;4.63;;
18657;SDS011;9458;50.942;5.074;2023-02-28T02:53:15;6.10;;;4.53;;
18657;SDS011;9458;50.942;5.074;2023-02-28T02:55:46;9.03;;;5.00;;
18657;SDS011;9458;50.942;5.074;2023-02-28T02:58:21;8.77;;;4.33;;
18657;SDS011;9458;50.942;5.074;2023-02-28T03:00:52;9.80;;;4.97;;
18657;SDS011;9458;50.942;5.074;2023-02-28T03:03:32;11.00;;;5.03;;
18657;SDS011;9458;50.942;5.074;2023-02-28T03:06:03;8.93;;;4.90;;
18657;SDS011;9458;50.942;5.074;2023-02-28T03:08:33;9.83;;;5.13;;
18657;SDS011;9458;50.942;5.074;2023-02-28T03:11:03;7.30;;;4.63;;
18657;SDS011;9458;50.942;5.074;2023-02-28T03:13:48;7.17;;;5.00;;
18657;SDS011;9458;50.942;5.074;2023-02-28T03:16:27;10.23;;;4.77;;
18657;SDS011;9458;50.942;5.074;2023-02-28T03:19:02;9.77;;;5.17;;
18657;SDS011;9458;50.942;5.074;2023-02-28T03:21:49;10.60;;;5.10;;
18657;SDS011;9458;50.942;5.074;2023-02-28T03:24:29;7.53;;;4.97;;
18657;SDS011;9458;50.942;5.074;2023-02-28T03:27:04;7.57;;;5.17;;
18657;SDS011;9458;50.942;5.074;2023-02-28T03:29:37;7.43;;;4.80;;
18657;SDS011;9458;50.942;5.074;2023-02-28T03:32:11;11.90;;;5.27;;
18657;SDS011;9458;50.942;5.074;2023-02-28T03:34:48;9.90;;;5.00;;
18657;SDS011;9458;50.942;5.074;2023-02-28T03:37:22;9.63;;;5.60;;
18657;SDS011;9458;50.942;5.074;2023-02-28T03:39:55;10.70;;;6.03;;
18657;SDS011;9458;50.942;5.074;2023-02-28T03:42:27;10.93;;;5.50;;
18657;SDS011;9458;50.942;5.074;2023-02-28T03:44:59;9.47;;;5.33;;
18657;SDS011;9458;50.942;5.074;2023-02-28T03:47:33;7.60;;;5.40;;
18657;SDS011;9458;50.942;5.074;2023-02-28T03:50:07;8.43;;;5.03;;
18657;SDS011;9458;50.942;5.074;2023-02-28T03:52:42;9.83;;;5.70;;
18657;SDS011;9458;50.942;5.074;2023-02-28T03:55:17;10.97;;;5.63;;
18657;SDS011;9458;50.942;5.074;2023-02-28T03:57:49;8.03;;;5.33;;
18657;SDS011;9458;50.942;5.074;2023-02-28T04:00:25;10.40;;;5.73;;
18657;SDS011;9458;50.942;5.074;2023-02-28T04:02:58;8.00;;;5.73;;
18657;SDS011;9458;50.942;5.074;2023-02-28T04:05:28;10.00;;;6.07;;
18657;SDS011;9458;50.942;5.074;2023-02-28T04:08:04;9.80;;;5.90;;
18657;SDS011;9458;50.942;5.074;2023-02-28T04:10:33;9.80;;;5.80;;
18657;SDS011;9458;50.942;5.074;2023-02-28T04:13:02;11.30;;;5.57;;
18657;SDS011;9458;50.942;5.074;2023-02-28T04:15:30;10.47;;;5.60;;
18657;SDS011;9458;50.942;5.074;2023-02-28T04:17:58;11.30;;;6.07;;
18657;SDS011;9458;50.942;5.074;2023-02-28T04:20:26;7.30;;;5.30;;
18657;SDS011;9458;50.942;5.074;2023-02-28T04:22:53;9.63;;;6.07;;
18657;SDS011;9458;50.942;5.074;2023-02-28T04:25:22;10.23;;;5.73;;
18657;SDS011;9458;50.942;5.074;2023-02-28T04:27:50;9.13;;;6.03;;
18657;SDS011;9458;50.942;5.074;2023-02-28T04:30:18;11.53;;;6.13;;
18657;SDS011;9458;50.942;5.074;2023-02-28T04:32:46;8.40;;;5.53;;
18657;SDS011;9458;50.942;5.074;2023-02-28T04:35:14;9.10;;;6.70;;
18657;SDS011;9458;50.942;5.074;2023-02-28T04:37:42;11.93;;;6.70;;
18657;SDS011;9458;50.942;5.074;2023-02-28T04:40:10;12.47;;;6.77;;
18657;SDS011;9458;50.942;5.074;2023-02-28T04:42:40;12.27;;;6.00;;
18657;SDS011;9458;50.942;5.074;2023-02-28T04:45:08;10.50;;;6.53;;
18657;SDS011;9458;50.942;5.074;2023-02-28T04:47:37;10.73;;;6.13;;
18657;SDS011;9458;50.942;5.074;2023-02-28T04:50:04;8.67;;;5.93;;
18657;SDS011;9458;50.942;5.074;2023-02-28T04:52:32;9.97;;;5.60;;
18657;SDS011;9458;50.942;5.074;2023-02-28T04:55:00;14.67;;;6.50;;
18657;SDS011;9458;50.942;5.074;2023-02-28T04:57:27;10.03;;;6.03;;
18657;SDS011;9458;50.942;5.074;2023-02-28T04:59:56;8.10;;;5.77;;
18657;SDS011;9458;50.942;5.074;2023-02-28T05:02:24;8.03;;;5.67;;
18657;SDS011;9458;50.942;5.074;2023-02-28T05:04:52;10.87;;;6.67;;
18657;SDS011;9458;50.942;5.074;2023-02-28T05:07:19;10.90;;;6.57;;
18657;SDS011;9458;50.942;5.074;2023-02-28T05:09:47;10.70;;;6.33;;
18657;SDS011;9458;50.942;5.074;2023-02-28T05:12:16;9.30;;;6.30;;
18657;SDS011;9458;50.942;5.074;2023-02-28T05:14:44;10.23;;;5.70;;
18657;SDS011;9458;50.942;5.074;2023-02-28T05:17:13;8.13;;;5.93;;
18657;SDS011;9458;50.942;5.074;2023-02-28T05:19:41;11.33;;;6.57;;
18657;SDS011;9458;50.942;5.074;2023-02-28T05:22:12;9.47;;;6.57;;
18657;SDS011;9458;50.942;5.074;2023-02-28T05:24:42;13.93;;;6.37;;
18657;SDS011;9458;50.942;5.074;2023-02-28T05:27:10;9.93;;;6.33;;
18657;SDS011;9458;50.942;5.074;2023-02-28T05:29:39;10.80;;;6.13;;
18657;SDS011;9458;50.942;5.074;2023-02-28T05:32:09;12.07;;;6.20;;
18657;SDS011;9458;50.942;5.074;2023-02-28T05:34:40;11.77;;;6.20;;
18657;SDS011;9458;50.942;5.074;2023-02-28T05:37:10;10.63;;;6.47;;
18657;SDS011;9458;50.942;5.074;2023-02-28T05:39:39;11.60;;;6.93;;
18657;SDS011;9458;50.942;5.074;2023-02-28T05:42:07;9.50;;;6.13;;
18657;SDS011;9458;50.942;5.074;2023-02-28T05:44:36;12.60;;;7.00;;
18657;SDS011;9458;50.942;5.074;2023-02-28T05:47:04;10.83;;;6.07;;
18657;SDS011;9458;50.942;5.074;2023-02-28T05:49:34;7.77;;;6.03;;
18657;SDS011;9458;50.942;5.074;2023-02-28T05:52:04;12.70;;;6.40;;
18657;SDS011;9458;50.942;5.074;2023-02-28T05:54:31;9.10;;;5.97;;
18657;SDS011;9458;50.942;5.074;2023-02-28T05:56:59;9.40;;;6.03;;
18657;SDS011;9458;50.942;5.074;2023-02-28T05:59:27;9.47;;;6.13;;
18657;SDS011;9458;50.942;5.074;2023-02-28T06:01:55;10.67;;;6.13;;
18657;SDS011;9458;50.942;5.074;2023-02-28T06:04:22;12.63;;;6.67;;
18657;SDS011;9458;50.942;5.074;2023-02-28T06:06:50;9.30;;;6.20;;
18657;SDS011;9458;50.942;5.074;2023-02-28T06:09:20;11.13;;;6.60;;
18657;SDS011;9458;50.942;5.074;2023-02-28T06:11:48;13.23;;;6.47;;
18657;SDS011;9458;50.942;5.074;2023-02-28T06:14:16;11.27;;;7.07;;
18657;SDS011;9458;50.942;5.074;2023-02-28T06:16:45;11.63;;;6.97;;
18657;SDS011;9458;50.942;5.074;2023-02-28T06:19:14;9.77;;;6.80;;
18657;SDS011;9458;50.942;5.074;2023-02-28T06:21:42;13.10;;;6.90;;
18657;SDS011;9458;50.942;5.074;2023-02-28T06:24:10;12.67;;;6.73;;
18657;SDS011;9458;50.942;5.074;2023-02-28T06:26:39;14.47;;;6.77;;
18657;SDS011;9458;50.942;5.074;2023-02-28T06:29:07;8.63;;;6.17;;
18657;SDS011;9458;50.942;5.074;2023-02-28T06:31:35;13.23;;;6.60;;
18657;SDS011;9458;50.942;5.074;2023-02-28T06:34:03;15.60;;;7.20;;
18657;SDS011;9458;50.942;5.074;2023-02-28T06:36:31;11.70;;;7.10;;
18657;SDS011;9458;50.942;5.074;2023-02-28T06:39:01;12.70;;;7.17;;
18657;SDS011;9458;50.942;5.074;2023-02-28T06:41:29;10.70;;;6.87;;
18657;SDS011;9458;50.942;5.074;2023-02-28T06:43:58;14.67;;;8.00;;
18657;SDS011;9458;50.942;5.074;2023-02-28T06:46:27;12.27;;;7.67;;
18657;SDS011;9458;50.942;5.074;2023-02-28T06:48:55;10.33;;;6.97;;
18657;SDS011;9458;50.942;5.074;2023-02-28T06:51:23;10.97;;;7.07;;
18657;SDS011;9458;50.942;5.074;2023-02-28T06:53:52;9.67;;;6.87;;
18657;SDS011;9458;50.942;5.074;2023-02-28T06:56:20;12.57;;;6.60;;
18657;SDS011;9458;50.942;5.074;2023-02-28T06:58:48;9.37;;;6.27;;
18657;SDS011;9458;50.942;5.074;2023-02-28T07:01:19;9.10;;;6.37;;
18657;SDS011;9458;50.942;5.074;2023-02-28T07:03:58;9.10;;;6.07;;
18657;SDS011;9458;50.942;5.074;2023-02-28T07:06:28;9.33;;;5.90;;
18657;SDS011;9458;50.942;5.074;2023-02-28T07:08:58;7.07;;;5.67;;
18657;SDS011;9458;50.942;5.074;2023-02-28T07:11:26;8.47;;;5.77;;
18657;SDS011;9458;50.942;5.074;2023-02-28T07:13:55;6.80;;;5.17;;
18657;SDS011;9458;50.942;5.074;2023-02-28T07:16:25;6.95;;;5.50;;
18657;SDS011;9458;50.942;5.074;2023-02-28T07:18:54;7.90;;;5.70;;
18657;SDS011;9458;50.942;5.074;2023-02-28T07:21:22;6.80;;;5.38;;
18657;SDS011;9458;50.942;5.074;2023-02-28T07:23:51;8.20;;;5.22;;
18657;SDS011;9458;50.942;5.074;2023-02-28T07:26:19;7.80;;;5.55;;
18657;SDS011;9458;50.942;5.074;2023-02-28T07:28:47;10.48;;;5.63;;
18657;SDS011;9458;50.942;5.074;2023-02-28T07:31:15;5.85;;;5.10;;
18657;SDS011;9458;50.942;5.074;2023-02-28T07:33:45;6.53;;;4.75;;
18657;SDS011;9458;50.942;5.074;2023-02-28T07:36:13;5.65;;;5.13;;
18657;SDS011;9458;50.942;5.074;2023-02-28T07:38:44;6.78;;;4.97;;
18657;SDS011;9458;50.942;5.074;2023-02-28T07:41:20;7.28;;;5.43;;
18657;SDS011;9458;50.942;5.074;2023-02-28T07:43:52;6.03;;;5.43;;
18657;SDS011;9458;50.942;5.074;2023-02-28T07:46:20;6.47;;;5.20;;
18657;SDS011;9458;50.942;5.074;2023-02-28T07:48:49;6.65;;;5.47;;
18657;SDS011;9458;50.942;5.074;2023-02-28T07:51:16;8.02;;;5.13;;
18657;SDS011;9458;50.942;5.074;2023-02-28T07:53:48;7.90;;;5.35;;
18657;SDS011;9458;50.942;5.074;2023-02-28T07:56:16;8.15;;;5.28;;
18657;SDS011;9458;50.942;5.074;2023-02-28T07:58:44;7.70;;;4.95;;
18657;SDS011;9458;50.942;5.074;2023-02-28T08:01:13;6.13;;;5.25;;
18657;SDS011;9458;50.942;5.074;2023-02-28T08:03:43;6.65;;;4.75;;
18657;SDS011;9458;50.942;5.074;2023-02-28T08:06:16;5.50;;;4.85;;
18657;SDS011;9458;50.942;5.074;2023-02-28T08:08:46;6.80;;;5.40;;
18657;SDS011;9458;50.942;5.074;2023-02-28T08:11:14;6.53;;;5.57;;
18657;SDS011;9458;50.942;5.074;2023-02-28T08:13:43;6.63;;;4.88;;
18657;SDS011;9458;50.942;5.074;2023-02-28T08:16:10;6.25;;;4.97;;
18657;SDS011;9458;50.942;5.074;2023-02-28T08:18:40;7.82;;;5.40;;
18657;SDS011;9458;50.942;5.074;2023-02-28T08:21:08;5.68;;;4.95;;
18657;SDS011;9458;50.942;5.074;2023-02-28T08:23:38;5.78;;;5.18;;
18657;SDS011;9458;50.942;5.074;2023-02-28T08:26:06;6.38;;;4.47;;
18657;SDS011;9458;50.942;5.074;2023-02-28T08:28:34;5.00;;;4.53;;
18657;SDS011;9458;50.942;5.074;2023-02-28T08:31:06;5.72;;;4.60;;
18657;SDS011;9458;50.942;5.074;2023-02-28T08:33:34;5.93;;;4.50;;
18657;SDS011;9458;50.942;5.074;2023-02-28T08:36:04;5.10;;;4.60;;
18657;SDS011;9458;50.942;5.074;2023-02-28T08:38:33;4.78;;;4.15;;
18657;SDS011;9458;50.942;5.074;2023-02-28T08:41:04;5.95;;;4.40;;
18657;SDS011;9458;50.942;5.074;2023-02-28T08:43:34;4.93;;;4.30;;
18657;SDS011;9458;50.942;5.074;2023-02-28T08:46:02;4.43;;;4.03;;
18657;SDS011;9458;50.942;5.074;2023-02-28T08:48:34;5.13;;;4.68;;
18657;SDS011;9458;50.942;5.074;2023-02-28T08:51:04;5.00;;;4.50;;
18657;SDS011;9458;50.942;5.074;2023-02-28T08:53:34;5.35;;;4.50;;
18657;SDS011;9458;50.942;5.074;2023-02-28T08:56:05;4.57;;;4.00;;
18657;SDS011;9458;50.942;5.074;2023-02-28T08:58:35;5.63;;;4.18;;
18657;SDS011;9458;50.942;5.074;2023-02-28T09:01:07;4.70;;;4.18;;
18657;SDS011;9458;50.942;5.074;2023-02-28T09:03:36;5.38;;;3.97;;
18657;SDS011;9458;50.942;5.074;2023-02-28T09:06:03;4.78;;;3.75;;
18657;SDS011;9458;50.942;5.074;2023-02-28T09:08:32;3.55;;;3.25;;
18657;SDS011;9458;50.942;5.074;2023-02-28T09:11:00;3.75;;;3.40;;
18657;SDS011;9458;50.942;5.074;2023-02-28T09:13:30;4.10;;;3.58;;
18657;SDS011;9458;50.942;5.074;2023-02-28T09:15:58;3.92;;;3.03;;
18657;SDS011;9458;50.942;5.074;2023-02-28T09:18:27;4.57;;;3.65;;
18657;SDS011;9458;50.942;5.074;2023-02-28T09:20:56;3.17;;;2.88;;
18657;SDS011;9458;50.942;5.074;2023-02-28T09:23:25;3.67;;;3.38;;
18657;SDS011;9458;50.942;5.074;2023-02-28T09:25:53;3.65;;;3.33;;
18657;SDS011;9458;50.942;5.074;2023-02-28T09:28:21;5.50;;;4.22;;
18657;SDS011;9458;50.942;5.074;2023-02-28T09:30:51;3.15;;;2.90;;
18657;SDS011;9458;50.942;5.074;2023-02-28T09:33:21;3.80;;;3.50;;
18657;SDS011;9458;50.942;5.074;2023-02-28T09:35:49;3.47;;;3.17;;
18657;SDS011;9458;50.942;5.074;2023-02-28T09:38:18;3.60;;;3.30;;
18657;SDS011;9458;50.942;5.074;2023-02-28T09:40:47;2.97;;;2.75;;
18657;SDS011;9458;50.942;5.074;2023-02-28T09:43:20;4.30;;;2.60;;
18657;SDS011;9458;50.942;5.074;2023-02-28T09:45:54;3.08;;;2.75;;
18657;SDS011;9458;50.942;5.074;2023-02-28T09:48:28;4.22;;;2.95;;
18657;SDS011;9458;50.942;5.074;2023-02-28T09:51:02;3.83;;;2.63;;
18657;SDS011;9458;50.942;5.074;2023-02-28T09:53:33;3.35;;;2.88;;
18657;SDS011;9458;50.942;5.074;2023-02-28T09:56:05;3.03;;;2.75;;
18657;SDS011;9458;50.942;5.074;2023-02-28T09:58:37;4.18;;;3.28;;
18657;SDS011;9458;50.942;5.074;2023-02-28T10:01:12;4.18;;;2.78;;
18657;SDS011;9458;50.942;5.074;2023-02-28T10:03:49;4.10;;;2.88;;
18657;SDS011;9458;50.942;5.074;2023-02-28T10:06:28;4.93;;;2.85;;
18657;SDS011;9458;50.942;5.074;2023-02-28T10:09:00;3.20;;;2.90;;
18657;SDS011;9458;50.942;5.074;2023-02-28T10:11:32;2.85;;;2.38;;
18657;SDS011;9458;50.942;5.074;2023-02-28T10:14:02;3.30;;;3.00;;
18657;SDS011;9458;50.942;5.074;2023-02-28T10:16:40;2.80;;;2.25;;
18657;SDS011;9458;50.942;5.074;2023-02-28T10:19:13;3.15;;;2.42;;
18657;SDS011;9458;50.942;5.074;2023-02-28T10:21:46;1.88;;;1.75;;
18657;SDS011;9458;50.942;5.074;2023-02-28T10:24:22;3.95;;;1.88;;
18657;SDS011;9458;50.942;5.074;2023-02-28T10:26:56;2.15;;;1.58;;
18657;SDS011;9458;50.942;5.074;2023-02-28T10:29:26;3.80;;;2.15;;
18657;SDS011;9458;50.942;5.074;2023-02-28T10:31:58;2.03;;;1.67;;
18657;SDS011;9458;50.942;5.074;2023-02-28T10:34:29;1.98;;;1.77;;
18657;SDS011;9458;50.942;5.074;2023-02-28T10:36:57;3.05;;;1.75;;
18657;SDS011;9458;50.942;5.074;2023-02-28T10:39:36;2.58;;;1.90;;
18657;SDS011;9458;50.942;5.074;2023-02-28T10:42:05;2.17;;;1.83;;
18657;SDS011;9458;50.942;5.074;2023-02-28T10:44:45;1.60;;;1.50;;
18657;SDS011;9458;50.942;5.074;2023-02-28T10:47:15;1.70;;;1.40;;
18657;SDS011;9458;50.942;5.074;2023-02-28T10:49:48;1.30;;;1.20;;
18657;SDS011;9458;50.942;5.074;2023-02-28T10:52:32;1.85;;;1.42;;
18657;SDS011;9458;50.942;5.074;2023-02-28T10:55:18;2.05;;;1.70;;
18657;SDS011;9458;50.942;5.074;2023-02-28T10:57:49;1.67;;;1.38;;
18657;SDS011;9458;50.942;5.074;2023-02-28T11:00:20;1.92;;;1.52;;
18657;SDS011;9458;50.942;5.074;2023-02-28T11:03:04;2.97;;;1.60;;
18657;SDS011;9458;50.942;5.074;2023-02-28T11:06:08;2.00;;;1.73;;
18657;SDS011;9458;50.942;5.074;2023-02-28T11:08:44;2.15;;;1.90;;
18657;SDS011;9458;50.942;5.074;2023-02-28T11:11:16;4.20;;;1.70;;
18657;SDS011;9458;50.942;5.074;2023-02-28T11:13:46;2.58;;;1.80;;
18657;SDS011;9458;50.942;5.074;2023-02-28T11:16:17;3.25;;;2.03;;
18657;SDS011;9458;50.942;5.074;2023-02-28T11:18:48;2.20;;;2.00;;
18657;SDS011;9458;50.942;5.074;2023-02-28T11:21:22;2.75;;;1.80;;
18657;SDS011;9458;50.942;5.074;2023-02-28T11:23:54;1.95;;;1.85;;
18657;SDS011;9458;50.942;5.074;2023-02-28T11:26:34;2.07;;;1.60;;
18657;SDS011;9458;50.942;5.074;2023-02-28T11:29:10;4.18;;;2.00;;
18657;SDS011;9458;50.942;5.074;2023-02-28T11:31:42;2.45;;;2.15;;
18657;SDS011;9458;50.942;5.074;2023-02-28T11:36:55;3.20;;;1.90;;
18657;SDS011;9458;50.942;5.074;2023-02-28T11:39:24;2.17;;;1.90;;
18657;SDS011;9458;50.942;5.074;2023-02-28T11:42:04;2.00;;;1.80;;
18657;SDS011;9458;50.942;5.074;2023-02-28T11:44:52;2.27;;;2.07;;
18657;SDS011;9458;50.942;5.074;2023-02-28T11:47:32;2.80;;;2.00;;
18657;SDS011;9458;50.942;5.074;2023-02-28T11:50:19;3.00;;;1.90;;
18657;SDS011;9458;50.942;5.074;2023-02-28T11:52:59;2.20;;;1.90;;
18657;SDS011;9458;50.942;5.074;2023-02-28T11:55:31;2.40;;;1.90;;
18657;SDS011;9458;50.942;5.074;2023-02-28T11:58:11;2.10;;;1.60;;
18657;SDS011;9458;50.942;5.074;2023-02-28T12:00:54;2.07;;;1.80;;
18657;SDS011;9458;50.942;5.074;2023-02-28T12:03:32;2.07;;;1.77;;
18657;SDS011;9458;50.942;5.074;2023-02-28T12:06:13;3.23;;;2.03;;
18657;SDS011;9458;50.942;5.074;2023-02-28T12:08:49;2.03;;;1.80;;
18657;SDS011;9458;50.942;5.074;2023-02-28T12:11:35;6.10;;;2.30;;
18657;SDS011;9458;50.942;5.074;2023-02-28T12:14:20;2.67;;;1.90;;
18657;SDS011;9458;50.942;5.074;2023-02-28T12:17:14;3.87;;;1.90;;
18657;SDS011;9458;50.942;5.074;2023-02-28T12:19:53;2.27;;;1.93;;
18657;SDS011;9458;50.942;5.074;2023-02-28T12:22:33;2.47;;;1.93;;
18657;SDS011;9458;50.942;5.074;2023-02-28T12:25:18;3.17;;;1.97;;
18657;SDS011;9458;50.942;5.074;2023-02-28T12:27:51;2.67;;;2.10;;
18657;SDS011;9458;50.942;5.074;2023-02-28T12:30:21;4.60;;;2.57;;
18657;SDS011;9458;50.942;5.074;2023-02-28T12:32:53;5.03;;;1.90;;
18657;SDS011;9458;50.942;5.074;2023-02-28T12:35:25;1.83;;;1.70;;
18657;SDS011;9458;50.942;5.074;2023-02-28T12:38:04;2.33;;;1.87;;
18657;SDS011;9458;50.942;5.074;2023-02-28T12:40:41;2.20;;;1.90;;
18657;SDS011;9458;50.942;5.074;2023-02-28T12:43:13;1.97;;;1.67;;
18657;SDS011;9458;50.942;5.074;2023-02-28T12:45:45;2.30;;;2.10;;
18657;SDS011;9458;50.942;5.074;2023-02-28T12:48:18;3.27;;;2.17;;
18657;SDS011;9458;50.942;5.074;2023-02-28T12:50:53;1.80;;;1.70;;
18657;SDS011;9458;50.942;5.074;2023-02-28T12:53:25;5.73;;;2.80;;
18657;SDS011;9458;50.942;5.074;2023-02-28T12:56:01;2.40;;;2.13;;
18657;SDS011;9458;50.942;5.074;2023-02-28T12:58:37;3.73;;;2.17;;
18657;SDS011;9458;50.942;5.074;2023-02-28T13:01:13;3.17;;;2.07;;
18657;SDS011;9458;50.942;5.074;2023-02-28T13:04:14;4.07;;;2.10;;
18657;SDS011;9458;50.942;5.074;2023-02-28T13:07:15;3.07;;;1.77;;
18657;SDS011;9458;50.942;5.074;2023-02-28T13:10:04;2.87;;;2.17;;
18657;SDS011;9458;50.942;5.074;2023-02-28T13:12:36;2.47;;;2.20;;
18657;SDS011;9458;50.942;5.074;2023-02-28T13:15:16;4.53;;;2.20;;
18657;SDS011;9458;50.942;5.074;2023-02-28T13:17:50;3.17;;;2.27;;
18657;SDS011;9458;50.942;5.074;2023-02-28T13:20:20;2.87;;;2.50;;
18657;SDS011;9458;50.942;5.074;2023-02-28T13:22:51;4.33;;;2.10;;
18657;SDS011;9458;50.942;5.074;2023-02-28T13:31:27;2.57;;;2.23;;
18657;SDS011;9458;50.942;5.074;2023-02-28T13:34:14;6.70;;;2.47;;
18657;SDS011;9458;50.942;5.074;2023-02-28T13:36:42;2.60;;;2.40;;
18657;SDS011;9458;50.942;5.074;2023-02-28T13:42:31;3.07;;;2.23;;
18657;SDS011;9458;50.942;5.074;2023-02-28T13:45:24;3.70;;;2.70;;
18657;SDS011;9458;50.942;5.074;2023-02-28T13:47:56;2.83;;;2.30;;
18657;SDS011;9458;50.942;5.074;2023-02-28T13:50:29;2.83;;;2.40;;
18657;SDS011;9458;50.942;5.074;2023-02-28T13:56:10;2.50;;;2.20;;
18657;SDS011;9458;50.942;5.074;2023-02-28T13:58:54;3.50;;;2.43;;
18657;SDS011;9458;50.942;5.074;2023-02-28T14:01:38;3.87;;;2.83;;
18657;SDS011;9458;50.942;5.074;2023-02-28T14:07:16;3.53;;;2.57;;
18657;SDS011;9458;50.942;5.074;2023-02-28T14:09:50;3.10;;;2.53;;
18657;SDS011;9458;50.942;5.074;2023-02-28T14:15:35;2.50;;;2.30;;
18657;SDS011;9458;50.942;5.074;2023-02-28T14:18:22;2.60;;;2.40;;
18657;SDS011;9458;50.942;5.074;2023-02-28T14:20:54;3.53;;;2.40;;
18657;SDS011;9458;50.942;5.074;2023-02-28T14:23:48;2.60;;;2.40;;
18657;SDS011;9458;50.942;5.074;2023-02-28T14:26:55;3.93;;;2.60;;
18657;SDS011;9458;50.942;5.074;2023-02-28T14:29:54;2.57;;;2.37;;
18657;SDS011;9458;50.942;5.074;2023-02-28T14:32:49;2.40;;;2.20;;
18657;SDS011;9458;50.942;5.074;2023-02-28T14:35:39;2.47;;;2.07;;
18657;SDS011;9458;50.942;5.074;2023-02-28T14:38:14;3.87;;;2.47;;
18657;SDS011;9458;50.942;5.074;2023-02-28T14:40:47;3.53;;;2.67;;
18657;SDS011;9458;50.942;5.074;2023-02-28T14:43:19;2.33;;;2.10;;
18657;SDS011;9458;50.942;5.074;2023-02-28T14:45:51;2.83;;;2.53;;
18657;SDS011;9458;50.942;5.074;2023-02-28T14:48:24;3.20;;;2.73;;
18657;SDS011;9458;50.942;5.074;2023-02-28T14:50:53;3.20;;;2.53;;
18657;SDS011;9458;50.942;5.074;2023-02-28T14:53:25;2.83;;;2.50;;
18657;SDS011;9458;50.942;5.074;2023-02-28T14:55:56;3.10;;;2.30;;
18657;SDS011;9458;50.942;5.074;2023-02-28T14:58:25;3.03;;;2.50;;
18657;SDS011;9458;50.942;5.074;2023-02-28T15:00:55;4.90;;;2.83;;
18657;SDS011;9458;50.942;5.074;2023-02-28T15:03:31;3.63;;;2.43;;
18657;SDS011;9458;50.942;5.074;2023-02-28T15:06:01;3.77;;;2.40;;
18657;SDS011;9458;50.942;5.074;2023-02-28T15:08:40;4.10;;;2.63;;
18657;SDS011;9458;50.942;5.074;2023-02-28T15:11:08;4.23;;;2.77;;
18657;SDS011;9458;50.942;5.074;2023-02-28T15:13:42;2.90;;;2.40;;
18657;SDS011;9458;50.942;5.074;2023-02-28T15:16:14;4.87;;;2.47;;
18657;SDS011;9458;50.942;5.074;2023-02-28T15:18:48;2.70;;;2.37;;
18657;SDS011;9458;50.942;5.074;2023-02-28T15:21:20;5.00;;;2.60;;
18657;SDS011;9458;50.942;5.074;2023-02-28T15:23:50;7.63;;;2.30;;
18657;SDS011;9458;50.942;5.074;2023-02-28T15:26:21;3.03;;;2.50;;
18657;SDS011;9458;50.942;5.074;2023-02-28T15:28:55;4.03;;;2.30;;
18657;SDS011;9458;50.942;5.074;2023-02-28T15:31:27;9.57;;;2.43;;
18657;SDS011;9458;50.942;5.074;2023-02-28T15:34:02;5.63;;;2.57;;
18657;SDS011;9458;50.942;5.074;2023-02-28T15:36:31;5.07;;;2.67;;
18657;SDS011;9458;50.942;5.074;2023-02-28T15:39:02;3.10;;;2.20;;
18657;SDS011;9458;50.942;5.074;2023-02-28T15:41:45;3.40;;;2.50;;
18657;SDS011;9458;50.942;5.074;2023-02-28T15:44:13;3.27;;;2.43;;
18657;SDS011;9458;50.942;5.074;2023-02-28T15:46:57;4.67;;;2.50;;
18657;SDS011;9458;50.942;5.074;2023-02-28T15:49:32;3.53;;;2.70;;
18657;SDS011;9458;50.942;5.074;2023-02-28T15:52:05;2.63;;;2.10;;
18657;SDS011;9458;50.942;5.074;2023-02-28T15:54:39;2.90;;;2.40;;
18657;SDS011;9458;50.942;5.074;2023-02-28T15:57:10;3.40;;;2.30;;
18657;SDS011;9458;50.942;5.074;2023-02-28T15:59:42;2.43;;;2.10;;
18657;SDS011;9458;50.942;5.074;2023-02-28T16:02:17;3.20;;;2.10;;
18657;SDS011;9458;50.942;5.074;2023-02-28T16:07:54;3.33;;;2.57;;